Time;durP1;ratioP1;P1;durP2;ratioP2;P2;SDS_P1;SDS_P2;PMS_P1;PMS_P2;Temp;Humidity;BMP_temperature;BMP_pressure;BME280_temperature;BME280_humidity;BME280_pressure;Samples;Min_cycle;Max_cycle;Signal;HPM_P1;HPM_P2
2022/08/17 00:01:17;;;;;;;18.12;14.30;;;;;;;17.83;72.84;96712.05;1691983;84;25779;-75
2022/08/17 00:03:46;;;;;;;17.62;14.50;;;;;;;17.76;72.81;96713.67;1691836;84;25743;-75
2022/08/17 00:06:20;;;;;;;15.13;13.53;;;;;;;17.65;72.90;96716.14;1691793;84;25723;-75
2022/08/17 00:08:57;;;;;;;14.18;12.68;;;;;;;17.61;73.11;96717.22;1648237;86;28370;-75
2022/08/17 00:11:32;;;;;;;14.90;12.65;;;;;;;17.59;73.13;96720.77;1594330;88;25325;-76
2022/08/17 00:14:07;;;;;;;18.82;12.75;;;;;;;17.58;73.15;96710.94;1561895;91;25879;-75
2022/08/17 00:16:41;;;;;;;16.25;13.35;;;;;;;17.57;73.21;96712.02;1560026;91;26635;-76
2022/08/17 00:19:12;;;;;;;15.88;14.18;;;;;;;17.56;73.25;96713.11;1562126;91;25878;-75
2022/08/17 00:21:43;;;;;;;19.82;13.62;;;;;;;17.55;73.28;96714.20;1562060;91;27394;-76
2022/08/17 00:24:09;;;;;;;18.67;14.15;;;;;;;17.53;73.27;96710.92;1559336;91;25948;-75
2022/08/17 00:26:36;;;;;;;16.45;13.70;;;;;;;17.53;73.25;96708.73;1562007;91;25857;-76
2022/08/17 00:29:03;;;;;;;16.52;13.80;;;;;;;17.53;73.26;96708.73;1562048;91;25741;-75
2022/08/17 00:31:30;;;;;;;18.25;13.50;;;;;;;17.50;73.32;96705.21;1562399;91;25821;-75
2022/08/17 00:33:57;;;;;;;18.05;13.25;;;;;;;17.49;73.31;96704.39;1561960;91;27509;-75
2022/08/17 00:36:23;;;;;;;17.85;13.93;;;;;;;17.49;73.34;96708.48;1564694;91;26000;-75
2022/08/17 00:38:50;;;;;;;14.10;10.95;;;;;;;17.45;73.30;96708.74;1570668;89;25775;-75
2022/08/17 00:41:22;;;;;;;11.57;9.98;;;;;;;17.34;73.31;96704.37;1570321;90;25775;-75
2022/08/17 00:43:53;;;;;;;16.12;12.25;;;;;;;17.22;73.35;96699.72;1570859;91;25875;-75
2022/08/17 00:46:28;;;;;;;15.17;12.13;;;;;;;17.16;73.73;96696.69;1570964;89;28125;-75
2022/08/17 00:48:56;;;;;;;16.37;12.90;;;;;;;17.19;73.86;96694.80;1520944;93;25815;-75
2022/08/17 00:51:58;;;;;;;22.75;14.30;;;;;;;17.22;73.91;96701.08;1520802;92;25862;-75
2022/08/17 00:54:36;;;;;;;17.62;14.53;;;;;;;17.24;73.90;96708.45;1566849;90;25860;-75
2022/08/17 00:57:16;;;;;;;16.75;14.95;;;;;;;17.19;74.00;96707.06;1566670;90;26594;-75
2022/08/17 00:59:53;;;;;;;18.32;14.33;;;;;;;17.11;74.08;96704.88;1554878;91;27535;-75
2022/08/17 01:02:20;;;;;;;18.92;14.60;;;;;;;17.05;74.29;96706.77;1531236;92;25924;-75
2022/08/17 01:04:50;;;;;;;19.12;15.72;;;;;;;17.03;74.51;96708.11;1554811;91;25857;-75
2022/08/17 01:07:19;;;;;;;18.30;15.55;;;;;;;17.02;74.66;96709.23;1564449;88;25866;-75
2022/08/17 01:09:46;;;;;;;17.10;14.75;;;;;;;17.00;74.75;96707.31;1607729;84;25746;-75
2022/08/17 01:12:13;;;;;;;19.23;14.78;;;;;;;16.99;74.83;96709.76;1669066;84;27434;-75
2022/08/17 01:14:40;;;;;;;19.73;14.10;;;;;;;17.02;74.87;96703.77;1669047;84;25748;-75
2022/08/17 01:17:08;;;;;;;24.87;14.78;;;;;;;17.04;74.82;96706.48;1669262;84;25782;-75
2022/08/17 01:19:38;;;;;;;16.97;14.73;;;;;;;17.06;74.79;96707.04;1650183;84;25710;-75
2022/08/17 01:22:19;;;;;;;19.62;14.13;;;;;;;17.07;74.72;96706.50;1669140;84;25454;-75
2022/08/17 01:24:53;;;;;;;19.25;13.18;;;;;;;17.07;74.68;96707.86;1668954;84;28116;-75
2022/08/17 01:27:20;;;;;;;17.32;13.80;;;;;;;17.06;74.65;96704.86;1615798;88;25947;-75
2022/08/17 01:29:51;;;;;;;19.77;14.07;;;;;;;17.05;74.61;96705.94;1618928;88;25323;-76
2022/08/17 01:32:19;;;;;;;17.65;14.38;;;;;;;17.04;74.53;96707.03;1619002;88;25839;-76
2022/08/17 01:34:46;;;;;;;17.55;13.30;;;;;;;17.02;74.49;96707.87;1619112;88;26537;-75
2022/08/17 01:37:14;;;;;;;17.00;14.40;;;;;;;17.01;74.52;96713.86;1620690;87;27570;-75
2022/08/17 01:39:58;;;;;;;14.95;13.15;;;;;;;16.98;74.50;96717.12;1621104;87;25919;-75
2022/08/17 01:43:00;;;;;;;14.43;12.98;;;;;;;16.95;74.60;96718.19;1525666;94;25334;-75
2022/08/17 01:45:32;;;;;;;17.15;12.98;;;;;;;16.92;74.64;96717.63;1459531;98;25789;-75
2022/08/17 01:47:59;;;;;;;17.98;13.78;;;;;;;16.92;74.65;96718.17;1459516;98;25891;-75
2022/08/17 01:50:31;;;;;;;15.98;13.40;;;;;;;16.90;74.59;96723.89;1459394;98;27657;-75
2022/08/17 01:53:05;;;;;;;16.00;14.15;;;;;;;16.89;74.62;96716.01;1505987;94;25791;-75
2022/08/17 01:55:37;;;;;;;17.02;13.80;;;;;;;16.88;74.63;96717.91;1481029;96;26081;-75
2022/08/17 01:58:08;;;;;;;;;;;;;;;16.87;74.58;96713.55;1423953;100;25780;-75
2022/08/17 02:00:32;;;;;;;14.73;12.95;;;;;;;16.85;74.78;96718.44;1424792;99;25864;-75
2022/08/17 02:02:58;;;;;;;16.93;13.35;;;;;;;16.82;74.68;96713.52;1422257;100;27426;-75
2022/08/17 02:05:26;;;;;;;17.25;14.07;;;;;;;16.81;74.72;96709.15;1422134;100;25973;-75
2022/08/17 02:07:52;;;;;;;16.93;14.53;;;;;;;16.82;74.73;96721.70;1422242;100;25408;-75
2022/08/17 02:10:19;;;;;;;18.05;14.07;;;;;;;16.78;74.77;96715.16;1422240;100;25755;-75
2022/08/17 02:12:45;;;;;;;17.98;14.65;;;;;;;16.72;74.81;96713.48;1422187;100;25572;-75
2022/08/17 02:15:13;;;;;;;19.87;14.15;;;;;;;16.72;74.92;96718.11;1422060;100;27446;-75
2022/08/17 02:17:40;;;;;;;18.27;14.47;;;;;;;16.71;74.95;96717.84;1422326;100;25790;-75
2022/08/17 02:20:09;;;;;;;17.07;13.65;;;;;;;16.62;74.92;96716.17;1422195;100;25820;-76
2022/08/17 02:22:39;;;;;;;18.35;15.03;;;;;;;16.52;75.08;96721.55;1436227;99;26430;-75
2022/08/17 02:25:08;;;;;;;18.30;15.23;;;;;;;16.45;75.31;96720.42;1460504;97;25868;-75
2022/08/17 02:27:36;;;;;;;19.42;15.13;;;;;;;16.39;75.47;96723.39;1462784;98;28109;-75
2022/08/17 02:30:06;;;;;;;22.25;14.50;;;;;;;16.31;75.67;96717.89;1462567;98;25857;-75
2022/08/17 02:32:32;;;;;;;19.27;14.20;;;;;;;16.30;75.86;96723.05;1462653;98;25905;-75
2022/08/17 02:35:00;;;;;;;17.90;14.93;;;;;;;16.33;75.93;96729.88;1462588;97;26520;-75
2022/08/17 02:37:28;;;;;;;16.10;13.88;;;;;;;16.36;75.93;96727.46;1462543;98;25876;-75
2022/08/17 02:39:56;;;;;;;16.93;13.55;;;;;;;16.38;75.85;96736.73;1484391;94;27519;-75
2022/08/17 02:42:32;;;;;;;14.85;13.35;;;;;;;16.40;75.79;96729.13;1503900;94;25989;-76
2022/08/17 02:45:00;;;;;;;17.17;13.78;;;;;;;16.41;75.76;96734.85;1460619;97;25964;-76
2022/08/17 02:47:27;;;;;;;17.80;14.03;;;;;;;16.41;75.69;96738.94;1506214;94;25741;-76
2022/08/17 02:49:53;;;;;;;21.77;13.83;;;;;;;16.42;75.62;96734.56;1506393;94;25772;-76
2022/08/17 02:52:20;;;;;;;19.50;14.03;;;;;;;16.43;75.62;96739.47;1529538;91;28367;-76
2022/08/17 02:54:47;;;;;;;15.90;13.45;;;;;;;16.41;75.64;96737.58;1604374;85;25858;-76
2022/08/17 02:57:14;;;;;;;20.50;14.33;;;;;;;16.40;75.62;96739.48;1652225;85;25801;-76
2022/08/17 02:59:41;;;;;;;15.15;12.75;;;;;;;16.38;75.65;96742.18;1652364;86;25930;-76
2022/08/17 03:02:11;;;;;;;15.18;13.55;;;;;;;16.38;75.61;96743.55;1652228;86;25856;-76
2022/08/17 03:04:38;;;;;;;19.05;13.85;;;;;;;16.36;75.60;96736.17;1652273;86;28111;-76
2022/08/17 03:07:05;;;;;;;18.35;13.35;;;;;;;16.36;75.57;96741.63;1652119;86;25825;-76
2022/08/17 03:09:32;;;;;;;17.85;13.48;;;;;;;16.37;75.59;96740.54;1652226;86;25879;-76
2022/08/17 03:12:11;;;;;;;16.42;13.22;;;;;;;16.35;75.57;96734.53;1652399;86;26558;-76
2022/08/17 03:14:40;;;;;;;16.25;13.05;;;;;;;16.34;75.57;96743.78;1652354;86;25796;-76
2022/08/17 03:17:08;;;;;;;14.47;12.65;;;;;;;16.32;75.56;96739.95;1652195;86;28217;-77
2022/08/17 03:19:35;;;;;;;14.33;12.37;;;;;;;16.31;75.52;96740.22;1652317;86;25740;-76
2022/08/17 03:22:07;;;;;;;14.40;12.03;;;;;;;16.31;75.53;96747.02;1652376;86;25796;-76
2022/08/17 03:24:34;;;;;;;13.78;12.30;;;;;;;16.28;75.47;96748.39;1652114;86;26535;-76
2022/08/17 03:27:00;;;;;;;18.62;12.13;;;;;;;16.28;75.47;96753.02;1652279;85;25745;-77
2022/08/17 03:29:27;;;;;;;14.55;11.15;;;;;;;16.27;75.47;96745.93;1652177;86;27375;-77
2022/08/17 03:31:53;;;;;;;16.82;12.37;;;;;;;16.26;75.47;96751.09;1652087;86;25563;-77
2022/08/17 03:34:20;;;;;;;13.83;12.05;;;;;;;16.25;75.44;96746.73;1652386;86;25771;-76
2022/08/17 03:36:47;;;;;;;17.48;12.37;;;;;;;16.23;75.46;96750.25;1667747;84;25811;-76
2022/08/17 03:39:13;;;;;;;23.45;13.30;;;;;;;16.21;75.55;96754.06;1686452;84;25755;-76
2022/08/17 03:41:40;;;;;;;14.95;12.90;;;;;;;16.19;75.64;96748.05;1697458;82;27385;-76
2022/08/17 03:44:07;;;;;;;19.82;13.30;;;;;;;16.16;75.65;96747.23;1704712;83;25415;-76
2022/08/17 03:57:33;;;;;;;18.92;14.23;;;;;;;15.91;76.34;96759.30;1733210;82;25732;-76
2022/08/17 04:00:00;;;;;;;18.07;14.65;;;;;;;15.88;76.48;96759.82;1733037;82;25712;-76
2022/08/17 04:02:31;;;;;;;22.50;13.90;;;;;;;15.89;76.66;96761.46;1732827;82;25832;-75
2022/08/17 04:04:58;;;;;;;19.57;14.47;;;;;;;15.89;76.74;96762.00;1732910;81;25749;-75
2022/08/17 04:07:28;;;;;;;17.23;14.47;;;;;;;15.86;76.79;96763.34;1733015;82;27375;-75
2022/08/17 04:09:56;;;;;;;18.55;15.03;;;;;;;15.88;76.91;96767.16;1732989;81;25782;-76
2022/08/17 04:12:23;;;;;;;17.60;14.70;;;;;;;15.91;76.98;96767.47;1733095;81;26276;-76
2022/08/17 04:14:51;;;;;;;16.35;14.40;;;;;;;15.94;77.02;96774.30;1733051;81;25769;-76
2022/08/17 04:17:17;;;;;;;21.95;16.35;;;;;;;15.96;77.05;96770.75;1733106;81;25666;-75
2022/08/17 04:19:44;;;;;;;18.35;15.38;;;;;;;16.00;77.12;96776.78;1733096;81;27357;-76
2022/08/17 04:22:10;;;;;;;22.90;14.63;;;;;;;16.04;77.16;96772.47;1733002;81;25857;-76
2022/08/17 04:24:37;;;;;;;17.20;14.15;;;;;;;16.06;77.21;96774.36;1733152;81;25696;-76
2022/08/17 04:27:04;;;;;;;20.60;14.23;;;;;;;16.10;77.20;96774.13;1733046;81;26268;-76
2022/08/17 04:29:30;;;;;;;19.77;15.65;;;;;;;16.11;77.15;96772.23;1732978;82;25761;-75
2022/08/17 04:31:57;;;;;;;20.35;15.60;;;;;;;16.14;77.14;96772.54;1733099;82;27351;-75
2022/08/17 04:34:23;;;;;;;21.70;15.78;;;;;;;16.17;77.11;96766.58;1732925;81;25781;-75
2022/08/17 04:36:51;;;;;;;21.02;15.85;;;;;;;16.21;77.07;96769.57;1738730;82;25441;-76
2022/08/17 04:39:17;;;;;;;21.75;15.55;;;;;;;16.24;77.10;96774.50;1742352;81;26416;-76
2022/08/17 04:44:29;;;;;;;19.30;15.63;;;;;;;16.32;77.12;96779.98;1742030;81;27506;-76
2022/08/17 04:46:55;;;;;;;21.12;15.65;;;;;;;16.34;77.12;96780.01;1742249;81;25726;-76
2022/08/17 04:49:22;;;;;;;25.82;17.65;;;;;;;16.37;77.15;96782.22;1742493;82;26197;-76
2022/08/17 04:51:49;;;;;;;25.97;17.35;;;;;;;16.41;77.17;96787.97;1742232;81;25839;-75
2022/08/17 04:54:21;;;;;;;24.85;18.02;;;;;;;16.45;77.21;96784.97;1742321;81;25667;-76
2022/08/17 04:56:48;;;;;;;29.67;18.75;;;;;;;16.47;77.24;96778.19;1742372;81;27483;-76
2022/08/17 04:59:19;;;;;;;27.45;18.67;;;;;;;16.53;77.29;96783.13;1741883;81;25761;-76
2022/08/17 05:01:48;;;;;;;25.85;18.40;;;;;;;16.57;77.29;96778.77;1742129;81;35400;-75
2022/08/17 05:04:20;;;;;;;26.90;17.20;;;;;;;16.60;77.40;96783.70;1742187;81;26556;-76
2022/08/17 05:06:48;;;;;;;22.00;17.02;;;;;;;16.64;77.37;96783.49;1742305;81;25756;-76
2022/08/17 05:09:16;;;;;;;18.92;15.85;;;;;;;16.69;77.39;96783.50;1742048;81;28114;-76
2022/08/17 05:11:45;;;;;;;22.17;16.65;;;;;;;16.76;77.37;96786.00;1741796;81;43133;-75
2022/08/17 05:14:11;;;;;;;23.35;18.32;;;;;;;16.80;77.42;96787.91;1742246;81;25730;-76
2022/08/17 05:16:38;;;;;;;19.90;17.67;;;;;;;16.83;77.46;96786.02;1741945;82;26562;-76
2022/08/17 05:19:04;;;;;;;22.62;18.12;;;;;;;16.87;77.55;96788.51;1742258;81;25688;-76
2022/08/17 05:21:31;;;;;;;21.37;17.75;;;;;;;16.91;77.64;96777.33;1742237;81;27991;-77
2022/08/17 05:23:58;;;;;;;23.18;17.32;;;;;;;16.96;77.86;96782.53;1742027;81;25930;-77
2022/08/17 05:26:27;;;;;;;22.00;17.20;;;;;;;16.99;77.84;96783.37;1742256;81;25738;-76
2022/08/17 05:28:58;;;;;;;19.02;16.20;;;;;;;17.00;77.97;96780.38;1742151;81;25755;-76
2022/08/17 05:31:25;;;;;;;21.12;17.07;;;;;;;17.04;78.02;96783.37;1742261;81;25815;-77
2022/08/17 05:33:52;;;;;;;18.82;15.75;;;;;;;17.10;78.13;96789.13;1742186;81;28179;-76
2022/08/17 05:36:18;;;;;;;21.90;17.23;;;;;;;17.14;78.20;96783.43;1741814;81;25658;-76
2022/08/17 05:38:45;;;;;;;19.50;17.40;;;;;;;17.22;78.26;96791.08;1742182;81;25751;-76
2022/08/17 05:41:11;;;;;;;18.90;16.90;;;;;;;17.27;78.27;96793.80;1742242;81;26549;-76
2022/08/17 05:43:41;;;;;;;19.48;17.37;;;;;;;17.31;78.39;96790.83;1742160;81;25742;-76
2022/08/17 05:46:27;;;;;;;21.68;17.27;;;;;;;17.34;78.42;96797.12;1742169;81;28289;-76
2022/08/17 05:49:04;;;;;;;24.65;17.82;;;;;;;17.40;78.63;96798.75;1679402;84;25840;-77
2022/08/17 05:51:48;;;;;;;22.95;17.48;;;;;;;17.45;78.66;96785.13;1696493;83;25871;-76
2022/08/17 05:54:46;;;;;;;23.35;17.45;;;;;;;17.53;78.72;96795.51;1675481;85;25905;-76
2022/08/17 05:57:50;;;;;;;22.87;18.62;;;;;;;17.60;78.66;96787.89;1670911;85;25786;-77
2022/08/17 06:00:24;;;;;;;23.32;17.95;;;;;;;17.68;78.67;96788.47;1675500;85;27505;-76
2022/08/17 06:03:22;;;;;;;26.20;18.80;;;;;;;17.77;78.65;96786.29;1586957;89;25875;-77
2022/08/17 06:06:17;;;;;;;21.00;16.93;;;;;;;17.85;78.74;96795.32;1559452;90;25907;-76
2022/08/17 06:09:18;;;;;;;21.48;17.85;;;;;;;17.93;78.73;96788.48;1562580;91;25923;-76
2022/08/17 06:11:56;;;;;;;22.48;17.85;;;;;;;18.04;78.86;96792.03;1559439;91;25873;-76
2022/08/17 06:15:06;;;;;;;22.05;18.15;;;;;;;18.12;79.09;96784.10;1562390;91;27605;-76
2022/08/17 06:17:33;;;;;;;27.13;19.52;;;;;;;18.21;79.15;96787.94;1562145;91;25827;-76
2022/08/17 06:20:05;;;;;;;22.15;18.90;;;;;;;18.31;79.31;96789.29;1562264;91;25883;-76
2022/08/17 06:22:36;;;;;;;23.80;18.75;;;;;;;18.39;79.29;96782.98;1515424;94;25940;-77
2022/08/17 06:25:29;;;;;;;20.43;18.17;;;;;;;18.48;79.28;96779.95;1515460;94;25857;-76
2022/08/17 06:28:10;;;;;;;25.00;18.07;;;;;;;18.58;79.17;96779.98;1515504;94;27429;-76
2022/08/17 06:30:47;;;;;;;23.27;19.10;;;;;;;18.69;79.22;96785.14;1511741;94;25820;-76
2022/08/17 06:33:21;;;;;;;25.25;18.23;;;;;;;18.80;78.96;96780.45;1495155;94;25902;-76
2022/08/17 06:36:14;;;;;;;19.52;17.52;;;;;;;18.90;78.81;96783.15;1495004;94;26391;-76
2022/08/17 06:38:49;;;;;;;23.45;17.67;;;;;;;18.98;78.65;96778.45;1497818;95;25839;-76
2022/08/17 06:41:30;;;;;;;23.45;17.57;;;;;;;19.10;78.64;96774.58;1497648;95;27455;-76
2022/08/17 06:44:13;;;;;;;22.95;18.80;;;;;;;19.22;78.74;96781.91;1519468;94;25810;-76
2022/08/17 06:46:47;;;;;;;22.73;17.90;;;;;;;19.32;78.50;96780.51;1470639;97;25903;-77
2022/08/17 06:49:43;;;;;;;24.07;19.25;;;;;;;19.43;78.58;96776.06;1470560;97;25814;-77
2022/08/17 06:52:23;;;;;;;21.42;17.35;;;;;;;19.57;78.66;96774.06;1470647;97;25958;-77
2022/08/17 06:55:01;;;;;;;23.70;17.87;;;;;;;19.69;78.58;96769.87;1470649;97;27533;-77
2022/08/17 06:57:32;;;;;;;21.80;17.52;;;;;;;19.83;78.30;96776.90;1446740;97;25412;-77
2022/08/17 07:00:12;;;;;;;21.68;17.65;;;;;;;19.99;78.29;96780.34;1486831;94;25886;-77
2022/08/17 07:02:59;;;;;;;22.48;16.75;;;;;;;20.14;78.12;96778.85;1517839;94;25890;-77
2022/08/17 07:06:00;;;;;;;19.20;17.20;;;;;;;20.31;77.93;96781.97;1518063;94;25654;-78
2022/08/17 07:08:38;;;;;;;20.57;17.50;;;;;;;20.47;77.73;96784.87;1518070;94;27413;-77
2022/08/17 07:11:13;;;;;;;21.70;16.20;;;;;;;20.63;77.39;96780.60;1559252;89;25855;-77
2022/08/17 07:14:18;;;;;;;22.60;16.37;;;;;;;20.74;77.49;96778.02;1575817;89;25764;-77
2022/08/17 07:16:50;;;;;;;19.57;16.27;;;;;;;20.86;77.59;96786.65;1555992;90;26317;-77
2022/08/17 07:19:21;;;;;;;22.13;17.17;;;;;;;21.01;77.62;96787.82;1556118;91;25402;-77
2022/08/17 07:22:17;;;;;;;22.82;15.93;;;;;;;21.12;77.26;96782.50;1556055;91;27799;-76
2022/08/17 07:24:49;;;;;;;22.52;16.37;;;;;;;21.23;76.93;96782.39;1591140;88;25785;-77
2022/08/17 07:27:27;;;;;;;18.98;15.68;;;;;;;21.33;76.61;96775.39;1594378;89;25843;-77
2022/08/17 07:30:07;;;;;;;21.60;16.57;;;;;;;21.44;76.44;96775.51;1599393;89;25909;-76
2022/08/17 07:32:42;;;;;;;18.52;15.55;;;;;;;21.58;76.26;96776.97;1599639;89;26000;-76
2022/08/17 07:35:17;;;;;;;18.23;16.05;;;;;;;21.71;75.92;96777.05;1654585;84;27471;-77
2022/08/17 07:37:52;;;;;;;20.05;15.43;;;;;;;22.06;75.68;96768.82;1711367;82;25902;-76
2022/08/17 07:40:36;;;;;;;20.15;16.73;;;;;;;22.06;75.68;96768.82;1663308;84;25764;-76
2022/08/17 07:43:25;;;;;;;21.80;15.28;;;;;;;22.26;75.41;96771.77;1568153;90;25687;-75
2022/08/17 07:48:48;;;;;;;21.62;16.93;;;;;;;22.69;74.67;96767.44;1623266;87;27449;-77
2022/08/17 07:51:39;;;;;;;20.92;16.35;;;;;;;22.98;74.56;96765.22;1626841;86;25805;-77
2022/08/17 07:54:23;;;;;;;22.37;15.55;;;;;;;23.36;74.21;96760.30;1605210;88;25791;-77
2022/08/17 07:57:13;;;;;;;19.27;15.65;;;;;;;23.80;73.60;96763.72;1559421;91;26733;-76
2022/08/17 07:59:44;;;;;;;15.88;14.23;;;;;;;24.25;72.94;96766.53;1559598;91;25789;-77
2022/08/17 08:02:37;;;;;;;16.42;14.70;;;;;;;24.62;72.10;96766.67;1559545;91;27723;-77
2022/08/17 08:05:19;;;;;;;;;;;;;;;24.92;71.46;96766.39;1561731;91;25881;-77
2022/08/17 08:08:00;;;;;;;23.52;18.17;;;;;;;25.30;70.24;96770.28;1559913;91;25867;-76
2022/08/17 08:10:37;;;;;;;20.32;15.10;;;;;;;25.63;70.26;96758.25;1559317;91;25691;-78
2022/08/17 08:13:24;;;;;;;18.17;15.32;;;;;;;25.90;69.67;96759.90;1559359;91;25814;-76
2022/08/17 08:15:55;;;;;;;17.50;14.70;;;;;;;26.17;69.19;96760.95;1531801;93;27428;-78
2022/08/17 08:18:35;;;;;;;19.70;15.75;;;;;;;26.49;68.42;96762.95;1498337;95;25832;-77
2022/08/17 08:21:30;;;;;;;28.23;20.00;;;;;;;26.74;67.79;96759.29;1498188;95;25897;-77
2022/08/17 08:24:27;;;;;;;18.92;16.90;;;;;;;27.02;67.17;96765.82;1498267;95;25941;-78
2022/08/17 08:27:14;;;;;;;17.62;14.35;;;;;;;27.34;66.37;96767.92;1498281;95;25846;-76
2022/08/17 08:30:07;;;;;;;15.53;13.88;;;;;;;27.69;65.65;96764.39;1498135;95;27437;-77
2022/08/17 08:33:16;;;;;;;16.65;13.80;;;;;;;27.73;64.31;96761.19;1498285;95;25894;-77
2022/08/17 08:36:01;;;;;;;15.93;13.90;;;;;;;27.80;64.23;96762.02;1532191;93;25808;-77
2022/08/17 08:38:52;;;;;;;18.75;13.45;;;;;;;28.23;63.72;96759.73;1481585;96;26073;-78
2022/08/17 08:41:43;;;;;;;18.82;14.55;;;;;;;28.64;62.85;96763.55;1526126;92;25907;-78
2022/08/17 08:44:43;;;;;;;15.95;13.55;;;;;;;28.98;61.91;96760.39;1478075;97;27435;-76
2022/08/17 08:47:41;;;;;;;16.10;13.25;;;;;;;29.13;61.43;96763.66;1478109;95;25423;-76
2022/08/17 08:50:30;;;;;;;16.30;13.58;;;;;;;29.18;60.98;96762.05;1478278;97;25946;-77
2022/08/17 08:53:08;;;;;;;18.52;12.28;;;;;;;29.43;60.39;96760.91;1485991;94;25819;-76
2022/08/17 08:55:56;;;;;;;17.52;12.60;;;;;;;29.74;59.34;96758.31;1523192;94;25998;-78
2022/08/17 08:59:00;;;;;;;16.73;12.20;;;;;;;29.74;58.69;96764.45;1520399;94;27514;-77
2022/08/17 09:01:40;;;;;;;15.28;12.90;;;;;;;29.95;58.67;96761.49;1520216;94;25792;-76
2022/08/17 09:04:18;;;;;;;14.33;12.80;;;;;;;29.73;57.53;96765.61;1521050;93;26029;-76
2022/08/17 09:07:02;;;;;;;18.73;12.30;;;;;;;29.64;57.88;96765.75;1523212;94;25859;-77
2022/08/17 09:09:48;;;;;;;17.60;11.43;;;;;;;29.92;57.44;96759.44;1523182;94;25816;-76
2022/08/17 09:12:49;;;;;;;14.13;11.03;;;;;;;30.28;56.97;96760.73;1523267;94;27406;-76
2022/08/17 09:15:20;;;;;;;15.78;11.25;;;;;;;30.49;56.07;96755.52;1537807;91;25802;-76
2022/08/17 09:18:01;;;;;;;12.65;10.75;;;;;;;30.69;55.67;96753.92;1573195;91;25832;-76
2022/08/17 09:20:45;;;;;;;15.98;11.08;;;;;;;30.97;54.89;96761.41;1573326;91;26457;-78
2022/08/17 09:23:20;;;;;;;14.28;10.30;;;;;;;31.18;54.83;96754.20;1636690;86;26612;-76
2022/08/17 09:25:57;;;;;;;15.38;10.72;;;;;;;31.33;54.03;96753.38;1634265;86;27641;-78
2022/08/17 09:28:35;;;;;;;18.15;10.82;;;;;;;31.43;53.17;96750.03;1637144;86;25830;-77
2022/08/17 09:31:10;;;;;;;14.38;11.55;;;;;;;31.57;52.77;96754.56;1636987;86;25779;-76
2022/08/17 09:33:43;;;;;;;21.37;13.18;;;;;;;31.49;52.82;96752.78;1565237;90;25857;-77
2022/08/17 09:36:42;;;;;;;15.03;13.43;;;;;;;31.56;52.34;96754.92;1565523;91;25882;-76
2022/08/17 09:39:16;;;;;;;18.48;14.78;;;;;;;31.63;51.78;96753.70;1570286;88;28313;-76
2022/08/17 09:42:06;;;;;;;17.67;14.73;;;;;;;31.70;51.26;96756.09;1614279;85;25838;-77
2022/08/17 09:44:40;;;;;;;19.82;14.28;;;;;;;31.79;51.22;96754.48;1646214;85;25880;-76
2022/08/17 09:47:21;;;;;;;19.65;14.85;;;;;;;31.93;50.82;96755.39;1591260;89;25787;-76
2022/08/17 09:49:57;;;;;;;17.40;14.13;;;;;;;31.90;50.69;96759.71;1487181;94;25870;-77
2022/08/17 09:52:27;;;;;;;15.30;13.80;;;;;;;31.98;50.04;96761.50;1488027;95;27400;-76
2022/08/17 09:54:57;;;;;;;23.95;15.45;;;;;;;31.99;50.18;96766.50;1488080;95;25921;-76
2022/08/17 09:57:28;;;;;;;23.62;16.05;;;;;;;32.04;49.71;96762.81;1488131;95;25763;-77
2022/08/17 10:03:16;;;;;;;22.32;17.95;;;;;;;31.73;49.81;96767.92;1426546;100;25409;-77
2022/08/17 10:06:05;;;;;;;22.02;16.25;;;;;;;31.78;49.38;96760.65;1424295;100;27563;-76
2022/08/17 10:09:03;;;;;;;19.02;15.78;;;;;;;32.03;49.38;96760.39;1424251;100;25706;-76
2022/08/17 10:15:06;;;;;;;18.25;16.12;;;;;;;32.40;48.35;96764.39;1426555;100;25804;-76
2022/08/17 10:17:52;;;;;;;21.73;16.45;;;;;;;32.36;48.16;96755.73;1426701;100;25904;-77
2022/08/17 10:20:27;;;;;;;21.70;17.07;;;;;;;32.46;47.78;96757.34;1426683;100;28479;-77
2022/08/17 10:26:13;;;;;;;17.85;15.15;;;;;;;32.13;47.73;96754.22;1433530;98;25904;-76
2022/08/17 10:28:51;;;;;;;18.98;16.07;;;;;;;32.34;47.54;96757.50;1420718;100;25891;-77
2022/08/17 10:31:27;;;;;;;17.57;15.65;;;;;;;32.40;47.37;96756.59;1444773;98;25842;-76
2022/08/17 10:34:24;;;;;;;21.40;16.73;;;;;;;32.48;46.95;96767.53;1460928;98;27465;-75
2022/08/17 10:36:56;;;;;;;18.02;16.30;;;;;;;32.68;46.92;96754.95;1460818;98;25887;-76
2022/08/17 10:39:43;;;;;;;21.07;16.15;;;;;;;32.72;46.10;96748.30;1463199;97;25992;-76
2022/08/17 10:42:49;;;;;;;16.37;14.83;;;;;;;32.80;46.14;96753.41;1463448;98;25903;-75
2022/08/17 10:45:35;;;;;;;16.05;14.35;;;;;;;32.88;46.05;96759.34;1469919;96;26486;-76
2022/08/17 10:48:11;;;;;;;18.00;14.60;;;;;;;32.83;45.76;96756.88;1468570;97;27452;-76
2022/08/17 10:51:06;;;;;;;14.43;13.05;;;;;;;32.82;45.58;96750.47;1468522;97;25853;-76
2022/08/17 10:53:39;;;;;;;15.72;13.25;;;;;;;32.61;45.78;96758.41;1468457;97;25845;-77
2022/08/17 10:56:16;;;;;;;14.85;12.78;;;;;;;32.63;45.28;96755.24;1472020;96;25901;-77
2022/08/17 10:58:56;;;;;;;17.25;13.98;;;;;;;32.58;45.55;96752.19;1493684;95;25881;-76
2022/08/17 11:01:57;;;;;;;14.13;12.65;;;;;;;32.62;45.58;96745.24;1477640;96;27499;-76
2022/08/17 11:05:00;;;;;;;14.78;12.80;;;;;;;32.69;45.18;96742.59;1477710;96;25940;-76
2022/08/17 11:08:00;;;;;;;15.15;12.53;;;;;;;32.60;45.23;96749.02;1499646;95;26721;-76
2022/08/17 11:10:41;;;;;;;13.03;11.78;;;;;;;32.44;45.07;96747.13;1502492;95;25857;-75
2022/08/17 11:13:26;;;;;;;14.00;12.60;;;;;;;32.43;45.50;96748.30;1502072;95;25825;-76
2022/08/17 11:16:31;;;;;;;15.48;13.65;;;;;;;32.45;45.67;96740.36;1469441;97;27448;-76
2022/08/17 11:19:20;;;;;;;13.22;11.80;;;;;;;32.53;45.49;96739.90;1467104;97;25817;-76
2022/08/17 11:22:20;;;;;;;15.48;13.20;;;;;;;32.62;44.75;96741.86;1488824;95;25805;-76
2022/08/17 11:24:50;;;;;;;13.32;12.03;;;;;;;32.65;44.53;96732.75;1521008;92;25842;-77
2022/08/17 11:27:33;;;;;;;13.95;11.22;;;;;;;32.75;44.25;96727.16;1533439;92;27155;-76
2022/08/17 11:30:13;;;;;;;14.13;12.63;;;;;;;32.73;43.85;96727.53;1570367;87;27260;-76
2022/08/17 11:32:48;;;;;;;14.47;11.70;;;;;;;32.83;43.70;96732.53;1633454;87;25813;-76
2022/08/17 11:35:28;;;;;;;13.28;11.15;;;;;;;32.91;43.14;96748.82;1633694;87;25857;-77
2022/08/17 11:38:08;;;;;;;11.50;10.15;;;;;;;32.67;43.07;96749.14;1632536;86;26662;-76
2022/08/17 11:40:41;;;;;;;14.55;10.58;;;;;;;32.44;43.45;96744.92;1626370;88;25837;-76
2022/08/17 11:43:45;;;;;;;12.53;10.25;;;;;;;32.38;43.65;96743.00;1625978;87;28253;-76
2022/08/17 11:46:22;;;;;;;14.55;11.88;;;;;;;32.14;43.41;96742.69;1625733;88;25719;-76
2022/08/17 11:52:06;;;;;;;13.00;10.18;;;;;;;31.79;43.36;96745.53;1629744;82;26521;-76
2022/08/17 11:54:47;;;;;;;11.22;10.13;;;;;;;31.89;43.11;96740.53;1747798;81;25731;-76
2022/08/17 11:57:29;;;;;;;;;;;;;;;32.02;43.31;96740.03;1750203;81;27386;-75
2022/08/17 12:00:10;;;;;;;14.15;10.80;;;;;;;32.11;42.99;96739.84;1747744;81;25671;-76
2022/08/17 12:02:44;;;;;;;10.82;9.68;;;;;;;32.18;43.36;96741.41;1717868;82;25764;-76
2022/08/17 12:05:24;;;;;;;10.70;9.68;;;;;;;32.27;43.14;96743.38;1632865;87;25832;-76
2022/08/17 12:08:07;;;;;;;11.40;10.18;;;;;;;32.37;43.08;96739.98;1632972;87;25776;-76
2022/08/17 12:10:39;;;;;;;14.58;12.68;;;;;;;32.39;43.17;96741.83;1586016;90;28486;-76
2022/08/17 12:13:13;;;;;;;14.00;12.50;;;;;;;32.50;43.35;96751.80;1586208;90;25529;-76
2022/08/17 12:15:49;;;;;;;16.60;12.93;;;;;;;32.26;43.66;96747.34;1584152;90;25461;-76
2022/08/17 12:18:30;;;;;;;16.10;12.98;;;;;;;32.15;44.49;96742.09;1586241;90;26460;-76
2022/08/17 12:21:14;;;;;;;15.05;13.18;;;;;;;32.19;45.10;96736.85;1586208;90;26048;-75
2022/08/17 12:23:55;;;;;;;14.80;12.70;;;;;;;32.27;44.81;96728.02;1581569;90;27464;-76
2022/08/17 12:26:29;;;;;;;14.33;12.55;;;;;;;32.14;44.53;96718.95;1586095;90;25893;-76
2022/08/17 12:29:06;;;;;;;13.72;12.23;;;;;;;32.13;45.14;96734.67;1586197;90;25855;-76